sensor_id;sensor_type;location;lat;lon;timestamp;P1;durP1;ratioP1;P2;durP2;ratioP2
65461;SDS011;53236;43.666;18.444;2024-02-15T00:00:44;35.73;;;19.83;;
65461;SDS011;53236;43.666;18.444;2024-02-15T00:03:10;38.70;;;22.20;;
65461;SDS011;53236;43.666;18.444;2024-02-15T00:05:38;34.37;;;21.03;;
65461;SDS011;53236;43.666;18.444;2024-02-15T00:08:04;34.27;;;20.03;;
65461;SDS011;53236;43.666;18.444;2024-02-15T00:10:31;54.83;;;28.07;;
65461;SDS011;53236;43.666;18.444;2024-02-15T00:12:57;54.93;;;28.20;;
65461;SDS011;53236;43.666;18.444;2024-02-15T00:15:23;46.67;;;26.33;;
65461;SDS011;53236;43.666;18.444;2024-02-15T00:17:49;44.53;;;25.27;;
65461;SDS011;53236;43.666;18.444;2024-02-15T00:20:16;40.93;;;23.03;;
65461;SDS011;53236;43.666;18.444;2024-02-15T00:22:43;43.17;;;23.10;;
65461;SDS011;53236;43.666;18.444;2024-02-15T00:25:09;46.60;;;26.13;;
65461;SDS011;53236;43.666;18.444;2024-02-15T00:27:36;40.93;;;24.87;;
65461;SDS011;53236;43.666;18.444;2024-02-15T00:30:02;49.80;;;26.40;;
65461;SDS011;53236;43.666;18.444;2024-02-15T00:32:30;43.33;;;24.17;;
65461;SDS011;53236;43.666;18.444;2024-02-15T00:34:56;39.90;;;23.30;;
65461;SDS011;53236;43.666;18.444;2024-02-15T00:37:21;47.37;;;24.67;;
65461;SDS011;53236;43.666;18.444;2024-02-15T00:39:47;41.97;;;23.90;;
65461;SDS011;53236;43.666;18.444;2024-02-15T00:42:13;44.33;;;23.37;;
65461;SDS011;53236;43.666;18.444;2024-02-15T00:44:40;38.33;;;23.37;;
65461;SDS011;53236;43.666;18.444;2024-02-15T00:47:07;42.77;;;24.87;;
65461;SDS011;53236;43.666;18.444;2024-02-15T00:49:34;37.30;;;23.40;;
65461;SDS011;53236;43.666;18.444;2024-02-15T00:52:01;38.17;;;23.33;;
65461;SDS011;53236;43.666;18.444;2024-02-15T00:54:27;34.80;;;21.63;;
65461;SDS011;53236;43.666;18.444;2024-02-15T00:56:52;35.53;;;22.00;;
65461;SDS011;53236;43.666;18.444;2024-02-15T00:59:18;39.33;;;23.97;;
65461;SDS011;53236;43.666;18.444;2024-02-15T01:01:44;41.13;;;24.93;;
65461;SDS011;53236;43.666;18.444;2024-02-15T01:04:11;40.53;;;24.47;;
65461;SDS011;53236;43.666;18.444;2024-02-15T01:06:37;38.47;;;23.40;;
65461;SDS011;53236;43.666;18.444;2024-02-15T01:09:02;41.27;;;25.40;;
65461;SDS011;53236;43.666;18.444;2024-02-15T01:11:29;38.03;;;23.77;;
65461;SDS011;53236;43.666;18.444;2024-02-15T01:13:59;37.77;;;23.33;;
65461;SDS011;53236;43.666;18.444;2024-02-15T01:16:25;44.60;;;24.40;;
65461;SDS011;53236;43.666;18.444;2024-02-15T01:18:51;45.57;;;26.93;;
65461;SDS011;53236;43.666;18.444;2024-02-15T01:21:17;54.63;;;31.80;;
65461;SDS011;53236;43.666;18.444;2024-02-15T01:23:44;64.33;;;35.73;;
65461;SDS011;53236;43.666;18.444;2024-02-15T01:26:11;61.83;;;34.77;;
65461;SDS011;53236;43.666;18.444;2024-02-15T01:28:39;60.30;;;33.00;;
65461;SDS011;53236;43.666;18.444;2024-02-15T01:31:08;45.50;;;27.40;;
65461;SDS011;53236;43.666;18.444;2024-02-15T01:33:39;32.23;;;19.30;;
65461;SDS011;53236;43.666;18.444;2024-02-15T01:36:05;31.83;;;17.57;;
65461;SDS011;53236;43.666;18.444;2024-02-15T01:38:31;27.67;;;17.47;;
65461;SDS011;53236;43.666;18.444;2024-02-15T01:40:56;34.70;;;19.00;;
65461;SDS011;53236;43.666;18.444;2024-02-15T01:43:22;19.77;;;13.07;;
65461;SDS011;53236;43.666;18.444;2024-02-15T01:45:48;24.63;;;13.60;;
65461;SDS011;53236;43.666;18.444;2024-02-15T01:48:16;24.70;;;14.37;;
65461;SDS011;53236;43.666;18.444;2024-02-15T01:50:42;23.10;;;13.83;;
65461;SDS011;53236;43.666;18.444;2024-02-15T01:53:08;25.50;;;14.20;;
65461;SDS011;53236;43.666;18.444;2024-02-15T01:55:35;19.47;;;11.97;;
65461;SDS011;53236;43.666;18.444;2024-02-15T01:58:02;18.10;;;10.37;;
65461;SDS011;53236;43.666;18.444;2024-02-15T02:00:28;17.47;;;10.10;;
65461;SDS011;53236;43.666;18.444;2024-02-15T02:02:56;19.57;;;11.93;;
65461;SDS011;53236;43.666;18.444;2024-02-15T02:05:27;27.30;;;15.17;;
65461;SDS011;53236;43.666;18.444;2024-02-15T02:07:53;25.37;;;14.33;;
65461;SDS011;53236;43.666;18.444;2024-02-15T02:10:20;26.43;;;13.33;;
65461;SDS011;53236;43.666;18.444;2024-02-15T02:12:46;31.73;;;16.80;;
65461;SDS011;53236;43.666;18.444;2024-02-15T02:15:12;37.83;;;19.07;;
65461;SDS011;53236;43.666;18.444;2024-02-15T02:17:38;35.57;;;18.67;;
65461;SDS011;53236;43.666;18.444;2024-02-15T02:20:05;30.20;;;17.30;;
65461;SDS011;53236;43.666;18.444;2024-02-15T02:22:33;30.93;;;17.53;;
65461;SDS011;53236;43.666;18.444;2024-02-15T02:25:04;35.13;;;18.07;;
65461;SDS011;53236;43.666;18.444;2024-02-15T02:27:33;31.97;;;19.23;;
65461;SDS011;53236;43.666;18.444;2024-02-15T02:29:59;34.17;;;20.30;;
65461;SDS011;53236;43.666;18.444;2024-02-15T02:32:26;35.40;;;19.47;;
65461;SDS011;53236;43.666;18.444;2024-02-15T02:34:52;37.30;;;20.30;;
65461;SDS011;53236;43.666;18.444;2024-02-15T02:37:25;36.37;;;20.40;;
65461;SDS011;53236;43.666;18.444;2024-02-15T02:39:51;36.97;;;20.80;;
65461;SDS011;53236;43.666;18.444;2024-02-15T02:42:17;34.27;;;18.33;;
65461;SDS011;53236;43.666;18.444;2024-02-15T02:44:43;29.40;;;16.93;;
65461;SDS011;53236;43.666;18.444;2024-02-15T02:47:09;23.83;;;14.67;;
65461;SDS011;53236;43.666;18.444;2024-02-15T02:49:35;21.70;;;13.00;;
65461;SDS011;53236;43.666;18.444;2024-02-15T02:52:02;21.60;;;10.13;;
65461;SDS011;53236;43.666;18.444;2024-02-15T02:54:28;14.67;;;9.20;;
65461;SDS011;53236;43.666;18.444;2024-02-15T02:56:54;16.33;;;10.30;;
65461;SDS011;53236;43.666;18.444;2024-02-15T02:59:20;20.53;;;11.73;;
65461;SDS011;53236;43.666;18.444;2024-02-15T03:01:46;17.80;;;10.60;;
65461;SDS011;53236;43.666;18.444;2024-02-15T03:04:14;16.30;;;9.97;;
65461;SDS011;53236;43.666;18.444;2024-02-15T03:06:42;15.10;;;9.23;;
65461;SDS011;53236;43.666;18.444;2024-02-15T03:09:08;20.67;;;10.57;;
65461;SDS011;53236;43.666;18.444;2024-02-15T03:11:35;16.80;;;9.87;;
65461;SDS011;53236;43.666;18.444;2024-02-15T03:14:01;18.07;;;9.80;;
65461;SDS011;53236;43.666;18.444;2024-02-15T03:16:30;15.00;;;9.77;;
65461;SDS011;53236;43.666;18.444;2024-02-15T03:18:59;14.33;;;8.90;;
65461;SDS011;53236;43.666;18.444;2024-02-15T03:21:27;16.97;;;9.53;;
65461;SDS011;53236;43.666;18.444;2024-02-15T03:23:53;14.77;;;9.73;;
65461;SDS011;53236;43.666;18.444;2024-02-15T03:26:32;13.10;;;8.97;;
65461;SDS011;53236;43.666;18.444;2024-02-15T03:29:02;14.57;;;8.67;;
65461;SDS011;53236;43.666;18.444;2024-02-15T03:31:28;15.13;;;9.37;;
65461;SDS011;53236;43.666;18.444;2024-02-15T03:33:56;16.67;;;8.70;;
65461;SDS011;53236;43.666;18.444;2024-02-15T03:36:25;14.37;;;8.37;;
65461;SDS011;53236;43.666;18.444;2024-02-15T03:38:52;17.13;;;9.50;;
65461;SDS011;53236;43.666;18.444;2024-02-15T03:41:21;17.37;;;9.90;;
65461;SDS011;53236;43.666;18.444;2024-02-15T03:43:47;19.03;;;11.67;;
65461;SDS011;53236;43.666;18.444;2024-02-15T03:46:13;17.43;;;9.67;;
65461;SDS011;53236;43.666;18.444;2024-02-15T03:48:42;19.93;;;10.30;;
65461;SDS011;53236;43.666;18.444;2024-02-15T03:51:15;25.80;;;14.83;;
65461;SDS011;53236;43.666;18.444;2024-02-15T03:53:42;21.70;;;11.27;;
65461;SDS011;53236;43.666;18.444;2024-02-15T03:56:08;22.40;;;10.43;;
65461;SDS011;53236;43.666;18.444;2024-02-15T03:58:34;19.47;;;10.63;;
65461;SDS011;53236;43.666;18.444;2024-02-15T04:01:01;17.50;;;10.07;;
65461;SDS011;53236;43.666;18.444;2024-02-15T04:03:31;21.53;;;10.60;;
65461;SDS011;53236;43.666;18.444;2024-02-15T04:05:59;20.00;;;11.27;;
65461;SDS011;53236;43.666;18.444;2024-02-15T04:08:25;17.10;;;9.70;;
65461;SDS011;53236;43.666;18.444;2024-02-15T04:10:51;15.67;;;9.70;;
65461;SDS011;53236;43.666;18.444;2024-02-15T04:13:18;20.27;;;10.57;;
65461;SDS011;53236;43.666;18.444;2024-02-15T04:15:44;16.63;;;10.33;;
65461;SDS011;53236;43.666;18.444;2024-02-15T04:18:12;21.57;;;12.17;;
65461;SDS011;53236;43.666;18.444;2024-02-15T04:20:39;17.00;;;9.77;;
65461;SDS011;53236;43.666;18.444;2024-02-15T04:23:10;17.00;;;9.77;;
65461;SDS011;53236;43.666;18.444;2024-02-15T04:25:36;16.40;;;10.30;;
65461;SDS011;53236;43.666;18.444;2024-02-15T04:28:02;18.93;;;10.60;;
65461;SDS011;53236;43.666;18.444;2024-02-15T04:30:29;22.20;;;12.40;;
65461;SDS011;53236;43.666;18.444;2024-02-15T04:32:55;25.23;;;13.50;;
65461;SDS011;53236;43.666;18.444;2024-02-15T04:35:21;24.53;;;14.17;;
65461;SDS011;53236;43.666;18.444;2024-02-15T04:37:47;23.70;;;13.20;;
65461;SDS011;53236;43.666;18.444;2024-02-15T04:40:14;25.27;;;11.67;;
65461;SDS011;53236;43.666;18.444;2024-02-15T04:42:40;23.47;;;12.40;;
65461;SDS011;53236;43.666;18.444;2024-02-15T04:45:09;23.27;;;12.20;;
65461;SDS011;53236;43.666;18.444;2024-02-15T04:47:38;20.53;;;11.53;;
65461;SDS011;53236;43.666;18.444;2024-02-15T04:50:07;18.53;;;11.17;;
65461;SDS011;53236;43.666;18.444;2024-02-15T04:52:34;19.97;;;11.27;;
65461;SDS011;53236;43.666;18.444;2024-02-15T04:55:00;18.73;;;11.93;;
65461;SDS011;53236;43.666;18.444;2024-02-15T04:57:26;21.93;;;11.60;;
65461;SDS011;53236;43.666;18.444;2024-02-15T04:59:53;21.30;;;13.07;;
65461;SDS011;53236;43.666;18.444;2024-02-15T05:02:20;19.10;;;11.60;;
65461;SDS011;53236;43.666;18.444;2024-02-15T05:04:47;23.77;;;13.67;;
65461;SDS011;53236;43.666;18.444;2024-02-15T05:07:12;25.67;;;15.27;;
65461;SDS011;53236;43.666;18.444;2024-02-15T05:09:42;27.07;;;16.53;;
65461;SDS011;53236;43.666;18.444;2024-02-15T05:12:08;22.03;;;15.10;;
65461;SDS011;53236;43.666;18.444;2024-02-15T05:14:33;21.07;;;13.13;;
65461;SDS011;53236;43.666;18.444;2024-02-15T05:17:01;24.43;;;12.97;;
65461;SDS011;53236;43.666;18.444;2024-02-15T05:19:27;26.17;;;14.53;;
65461;SDS011;53236;43.666;18.444;2024-02-15T05:21:55;31.50;;;15.37;;
65461;SDS011;53236;43.666;18.444;2024-02-15T05:24:21;23.03;;;13.93;;
65461;SDS011;53236;43.666;18.444;2024-02-15T05:26:47;24.53;;;13.77;;
65461;SDS011;53236;43.666;18.444;2024-02-15T05:29:14;27.13;;;14.70;;
65461;SDS011;53236;43.666;18.444;2024-02-15T05:31:40;23.43;;;14.47;;
65461;SDS011;53236;43.666;18.444;2024-02-15T05:34:06;28.10;;;16.33;;
65461;SDS011;53236;43.666;18.444;2024-02-15T05:36:33;26.13;;;16.03;;
65461;SDS011;53236;43.666;18.444;2024-02-15T05:38:59;26.37;;;16.20;;
65461;SDS011;53236;43.666;18.444;2024-02-15T05:41:25;25.00;;;16.23;;
65461;SDS011;53236;43.666;18.444;2024-02-15T05:43:51;23.70;;;16.00;;
65461;SDS011;53236;43.666;18.444;2024-02-15T05:46:19;24.37;;;14.77;;
65461;SDS011;53236;43.666;18.444;2024-02-15T05:48:48;21.27;;;13.77;;
65461;SDS011;53236;43.666;18.444;2024-02-15T05:51:14;32.83;;;16.90;;
65461;SDS011;53236;43.666;18.444;2024-02-15T05:53:41;22.03;;;15.37;;
65461;SDS011;53236;43.666;18.444;2024-02-15T05:56:08;36.10;;;21.23;;
65461;SDS011;53236;43.666;18.444;2024-02-15T05:58:35;33.23;;;20.60;;
65461;SDS011;53236;43.666;18.444;2024-02-15T06:01:02;34.73;;;21.87;;
65461;SDS011;53236;43.666;18.444;2024-02-15T06:03:32;39.67;;;25.53;;
65461;SDS011;53236;43.666;18.444;2024-02-15T06:06:01;41.87;;;26.40;;
65461;SDS011;53236;43.666;18.444;2024-02-15T06:08:31;39.67;;;28.13;;
65461;SDS011;53236;43.666;18.444;2024-02-15T06:10:58;44.20;;;29.17;;
65461;SDS011;53236;43.666;18.444;2024-02-15T06:13:25;35.17;;;26.10;;
65461;SDS011;53236;43.666;18.444;2024-02-15T06:15:52;41.33;;;25.63;;
65461;SDS011;53236;43.666;18.444;2024-02-15T06:18:22;37.57;;;25.00;;
65461;SDS011;53236;43.666;18.444;2024-02-15T06:20:56;36.67;;;24.97;;
65461;SDS011;53236;43.666;18.444;2024-02-15T06:23:23;36.03;;;24.27;;
65461;SDS011;53236;43.666;18.444;2024-02-15T06:25:51;36.73;;;25.50;;
65461;SDS011;53236;43.666;18.444;2024-02-15T06:28:25;38.55;;;26.05;;
65461;SDS011;53236;43.666;18.444;2024-02-15T06:31:21;36.27;;;24.17;;
65461;SDS011;53236;43.666;18.444;2024-02-15T06:34:05;33.47;;;25.23;;
65461;SDS011;53236;43.666;18.444;2024-02-15T06:36:50;37.23;;;25.60;;
65461;SDS011;53236;43.666;18.444;2024-02-15T06:39:36;34.60;;;23.27;;
65461;SDS011;53236;43.666;18.444;2024-02-15T06:42:10;35.90;;;22.77;;
65461;SDS011;53236;43.666;18.444;2024-02-15T06:44:39;30.60;;;21.67;;
65461;SDS011;53236;43.666;18.444;2024-02-15T06:47:05;41.73;;;27.43;;
65461;SDS011;53236;43.666;18.444;2024-02-15T06:49:32;42.20;;;29.30;;
65461;SDS011;53236;43.666;18.444;2024-02-15T06:51:58;44.97;;;33.60;;
65461;SDS011;53236;43.666;18.444;2024-02-15T06:54:27;48.83;;;34.63;;
65461;SDS011;53236;43.666;18.444;2024-02-15T06:56:53;56.43;;;39.20;;
65461;SDS011;53236;43.666;18.444;2024-02-15T06:59:20;72.10;;;44.33;;
65461;SDS011;53236;43.666;18.444;2024-02-15T07:01:47;74.20;;;47.93;;
65461;SDS011;53236;43.666;18.444;2024-02-15T07:04:17;59.40;;;40.53;;
65461;SDS011;53236;43.666;18.444;2024-02-15T07:06:44;46.87;;;33.00;;
65461;SDS011;53236;43.666;18.444;2024-02-15T07:09:12;54.43;;;38.13;;
65461;SDS011;53236;43.666;18.444;2024-02-15T07:11:40;54.43;;;38.10;;
65461;SDS011;53236;43.666;18.444;2024-02-15T07:14:06;53.33;;;35.23;;
65461;SDS011;53236;43.666;18.444;2024-02-15T07:16:34;46.80;;;34.43;;
65461;SDS011;53236;43.666;18.444;2024-02-15T07:19:00;32.20;;;21.07;;
65461;SDS011;53236;43.666;18.444;2024-02-15T07:21:26;27.70;;;20.10;;
65461;SDS011;53236;43.666;18.444;2024-02-15T07:23:55;31.13;;;21.30;;
65461;SDS011;53236;43.666;18.444;2024-02-15T07:26:21;27.80;;;20.00;;
65461;SDS011;53236;43.666;18.444;2024-02-15T07:28:59;28.90;;;21.60;;
65461;SDS011;53236;43.666;18.444;2024-02-15T07:31:28;32.13;;;22.08;;
65461;SDS011;53236;43.666;18.444;2024-02-15T07:33:54;46.97;;;33.03;;
65461;SDS011;53236;43.666;18.444;2024-02-15T07:36:21;129.20;;;81.03;;
65461;SDS011;53236;43.666;18.444;2024-02-15T07:38:50;87.40;;;58.20;;
65461;SDS011;53236;43.666;18.444;2024-02-15T07:41:22;85.13;;;55.07;;
65461;SDS011;53236;43.666;18.444;2024-02-15T07:43:49;58.93;;;39.30;;
65461;SDS011;53236;43.666;18.444;2024-02-15T07:46:16;42.37;;;29.17;;
65461;SDS011;53236;43.666;18.444;2024-02-15T07:48:44;43.20;;;31.67;;
65461;SDS011;53236;43.666;18.444;2024-02-15T07:51:14;42.47;;;27.20;;
65461;SDS011;53236;43.666;18.444;2024-02-15T07:53:43;41.57;;;28.60;;
65461;SDS011;53236;43.666;18.444;2024-02-15T07:56:12;46.00;;;30.30;;
65461;SDS011;53236;43.666;18.444;2024-02-15T07:58:44;57.93;;;44.90;;
65461;SDS011;53236;43.666;18.444;2024-02-15T08:01:13;55.90;;;39.93;;
65461;SDS011;53236;43.666;18.444;2024-02-15T08:03:40;52.80;;;33.40;;
65461;SDS011;53236;43.666;18.444;2024-02-15T08:06:15;48.97;;;31.25;;
65461;SDS011;53236;43.666;18.444;2024-02-15T08:08:42;43.57;;;32.90;;
65461;SDS011;53236;43.666;18.444;2024-02-15T08:11:12;87.73;;;53.13;;
65461;SDS011;53236;43.666;18.444;2024-02-15T08:16:21;122.40;;;72.07;;
65461;SDS011;53236;43.666;18.444;2024-02-15T08:18:48;123.87;;;70.67;;
65461;SDS011;53236;43.666;18.444;2024-02-15T08:21:17;126.00;;;69.27;;
65461;SDS011;53236;43.666;18.444;2024-02-15T08:23:43;109.00;;;65.17;;
65461;SDS011;53236;43.666;18.444;2024-02-15T08:26:09;105.60;;;62.47;;
65461;SDS011;53236;43.666;18.444;2024-02-15T08:28:38;102.93;;;58.13;;
65461;SDS011;53236;43.666;18.444;2024-02-15T08:31:04;92.23;;;51.73;;
65461;SDS011;53236;43.666;18.444;2024-02-15T08:33:30;56.60;;;35.40;;
65461;SDS011;53236;43.666;18.444;2024-02-15T08:35:56;41.53;;;27.87;;
65461;SDS011;53236;43.666;18.444;2024-02-15T08:38:22;55.37;;;33.77;;
65461;SDS011;53236;43.666;18.444;2024-02-15T08:40:48;55.17;;;35.47;;
65461;SDS011;53236;43.666;18.444;2024-02-15T08:43:14;57.70;;;35.57;;
65461;SDS011;53236;43.666;18.444;2024-02-15T08:45:43;94.10;;;56.97;;
65461;SDS011;53236;43.666;18.444;2024-02-15T08:48:09;141.63;;;87.73;;
65461;SDS011;53236;43.666;18.444;2024-02-15T08:50:35;152.97;;;89.20;;
65461;SDS011;53236;43.666;18.444;2024-02-15T08:53:01;147.17;;;87.30;;
65461;SDS011;53236;43.666;18.444;2024-02-15T08:55:31;106.40;;;67.63;;
65461;SDS011;53236;43.666;18.444;2024-02-15T08:57:57;73.40;;;47.27;;
65461;SDS011;53236;43.666;18.444;2024-02-15T09:00:24;58.53;;;36.53;;
65461;SDS011;53236;43.666;18.444;2024-02-15T09:02:51;52.10;;;32.63;;
65461;SDS011;53236;43.666;18.444;2024-02-15T09:05:18;64.90;;;42.13;;
65461;SDS011;53236;43.666;18.444;2024-02-15T09:07:44;60.30;;;40.87;;
65461;SDS011;53236;43.666;18.444;2024-02-15T09:10:13;84.77;;;52.80;;
65461;SDS011;53236;43.666;18.444;2024-02-15T09:12:40;67.23;;;42.80;;
65461;SDS011;53236;43.666;18.444;2024-02-15T09:15:07;54.33;;;36.47;;
65461;SDS011;53236;43.666;18.444;2024-02-15T09:17:36;58.20;;;35.63;;
65461;SDS011;53236;43.666;18.444;2024-02-15T09:20:07;41.27;;;27.33;;
65461;SDS011;53236;43.666;18.444;2024-02-15T09:22:39;35.33;;;23.52;;
65461;SDS011;53236;43.666;18.444;2024-02-15T09:25:09;52.07;;;32.53;;
65461;SDS011;53236;43.666;18.444;2024-02-15T09:27:35;55.70;;;36.53;;
65461;SDS011;53236;43.666;18.444;2024-02-15T09:30:02;56.87;;;34.57;;
65461;SDS011;53236;43.666;18.444;2024-02-15T09:32:29;73.97;;;41.47;;
65461;SDS011;53236;43.666;18.444;2024-02-15T09:34:55;57.33;;;32.90;;
65461;SDS011;53236;43.666;18.444;2024-02-15T09:37:21;48.77;;;30.50;;
65461;SDS011;53236;43.666;18.444;2024-02-15T09:39:49;30.00;;;19.87;;
65461;SDS011;53236;43.666;18.444;2024-02-15T09:42:15;32.40;;;20.00;;
65461;SDS011;53236;43.666;18.444;2024-02-15T09:44:40;28.70;;;17.57;;
65461;SDS011;53236;43.666;18.444;2024-02-15T09:47:09;25.07;;;16.60;;
65461;SDS011;53236;43.666;18.444;2024-02-15T09:49:38;30.67;;;16.93;;
65461;SDS011;53236;43.666;18.444;2024-02-15T09:52:06;38.10;;;22.63;;
65461;SDS011;53236;43.666;18.444;2024-02-15T09:54:37;33.27;;;19.47;;
65461;SDS011;53236;43.666;18.444;2024-02-15T09:57:10;32.77;;;18.80;;
65461;SDS011;53236;43.666;18.444;2024-02-15T09:59:39;26.97;;;17.70;;
65461;SDS011;53236;43.666;18.444;2024-02-15T10:02:06;22.70;;;14.60;;
65461;SDS011;53236;43.666;18.444;2024-02-15T10:04:42;26.47;;;16.07;;
65461;SDS011;53236;43.666;18.444;2024-02-15T10:07:08;24.77;;;15.97;;
65461;SDS011;53236;43.666;18.444;2024-02-15T10:09:34;28.87;;;17.90;;
65461;SDS011;53236;43.666;18.444;2024-02-15T10:12:02;39.93;;;21.60;;
65461;SDS011;53236;43.666;18.444;2024-02-15T10:14:31;34.90;;;21.17;;
65461;SDS011;53236;43.666;18.444;2024-02-15T10:17:04;31.07;;;19.87;;
65461;SDS011;53236;43.666;18.444;2024-02-15T10:19:36;36.20;;;21.40;;
65461;SDS011;53236;43.666;18.444;2024-02-15T10:22:05;36.00;;;22.30;;
65461;SDS011;53236;43.666;18.444;2024-02-15T10:24:35;34.13;;;19.00;;
65461;SDS011;53236;43.666;18.444;2024-02-15T10:27:05;23.50;;;13.27;;
65461;SDS011;53236;43.666;18.444;2024-02-15T10:29:35;16.90;;;10.23;;
65461;SDS011;53236;43.666;18.444;2024-02-15T10:32:03;13.23;;;7.13;;
65461;SDS011;53236;43.666;18.444;2024-02-15T10:34:35;15.57;;;9.93;;
65461;SDS011;53236;43.666;18.444;2024-02-15T10:37:10;15.13;;;10.30;;
65461;SDS011;53236;43.666;18.444;2024-02-15T10:39:37;24.73;;;15.83;;
65461;SDS011;53236;43.666;18.444;2024-02-15T10:42:03;12.07;;;7.77;;
65461;SDS011;53236;43.666;18.444;2024-02-15T10:44:32;10.10;;;5.37;;
65461;SDS011;53236;43.666;18.444;2024-02-15T10:47:01;6.43;;;3.70;;
65461;SDS011;53236;43.666;18.444;2024-02-15T10:49:32;6.67;;;3.40;;
65461;SDS011;53236;43.666;18.444;2024-02-15T10:51:58;5.30;;;3.90;;
65461;SDS011;53236;43.666;18.444;2024-02-15T10:57:12;6.87;;;2.83;;
65461;SDS011;53236;43.666;18.444;2024-02-15T10:59:53;4.37;;;2.87;;
65461;SDS011;53236;43.666;18.444;2024-02-15T11:02:29;5.63;;;2.70;;
65461;SDS011;53236;43.666;18.444;2024-02-15T11:05:01;7.13;;;2.70;;
65461;SDS011;53236;43.666;18.444;2024-02-15T11:07:33;9.90;;;2.67;;
65461;SDS011;53236;43.666;18.444;2024-02-15T11:10:00;14.17;;;2.90;;
65461;SDS011;53236;43.666;18.444;2024-02-15T11:12:29;7.47;;;3.27;;
65461;SDS011;53236;43.666;18.444;2024-02-15T11:14:56;7.07;;;3.50;;
65461;SDS011;53236;43.666;18.444;2024-02-15T11:20:04;14.20;;;5.70;;
65461;SDS011;53236;43.666;18.444;2024-02-15T11:22:37;8.33;;;4.13;;
65461;SDS011;53236;43.666;18.444;2024-02-15T11:25:04;9.60;;;3.80;;
65461;SDS011;53236;43.666;18.444;2024-02-15T11:27:36;10.97;;;4.47;;
65461;SDS011;53236;43.666;18.444;2024-02-15T11:30:03;11.00;;;5.67;;
65461;SDS011;53236;43.666;18.444;2024-02-15T11:32:46;12.03;;;4.27;;
65461;SDS011;53236;43.666;18.444;2024-02-15T11:35:20;7.97;;;4.70;;
65461;SDS011;53236;43.666;18.444;2024-02-15T11:42:55;9.53;;;4.33;;
65461;SDS011;53236;43.666;18.444;2024-02-15T11:45:29;14.03;;;6.70;;
65461;SDS011;53236;43.666;18.444;2024-02-15T11:48:12;10.97;;;5.43;;
65461;SDS011;53236;43.666;18.444;2024-02-15T11:50:39;8.53;;;5.37;;
65461;SDS011;53236;43.666;18.444;2024-02-15T11:53:06;7.70;;;4.40;;
65461;SDS011;53236;43.666;18.444;2024-02-15T11:55:36;8.13;;;3.67;;
65461;SDS011;53236;43.666;18.444;2024-02-15T11:58:05;6.50;;;4.13;;
65461;SDS011;53236;43.666;18.444;2024-02-15T12:00:37;6.37;;;2.87;;
65461;SDS011;53236;43.666;18.444;2024-02-15T12:03:23;7.87;;;2.83;;
65461;SDS011;53236;43.666;18.444;2024-02-15T12:06:08;5.47;;;3.63;;
65461;SDS011;53236;43.666;18.444;2024-02-15T12:08:52;8.10;;;3.73;;
65461;SDS011;53236;43.666;18.444;2024-02-15T12:11:38;6.60;;;3.70;;
65461;SDS011;53236;43.666;18.444;2024-02-15T12:14:22;10.20;;;5.20;;
65461;SDS011;53236;43.666;18.444;2024-02-15T12:17:08;6.27;;;3.07;;
65461;SDS011;53236;43.666;18.444;2024-02-15T12:19:55;4.83;;;2.63;;
65461;SDS011;53236;43.666;18.444;2024-02-15T12:24:57;4.80;;;2.60;;
65461;SDS011;53236;43.666;18.444;2024-02-15T12:27:25;6.27;;;2.33;;
65461;SDS011;53236;43.666;18.444;2024-02-15T12:29:58;4.57;;;2.40;;
65461;SDS011;53236;43.666;18.444;2024-02-15T12:32:25;6.60;;;3.67;;
65461;SDS011;53236;43.666;18.444;2024-02-15T12:34:52;9.73;;;4.90;;
65461;SDS011;53236;43.666;18.444;2024-02-15T12:37:19;5.77;;;2.77;;
65461;SDS011;53236;43.666;18.444;2024-02-15T12:39:49;8.00;;;3.10;;
65461;SDS011;53236;43.666;18.444;2024-02-15T12:42:15;9.27;;;5.00;;
65461;SDS011;53236;43.666;18.444;2024-02-15T12:44:46;8.53;;;4.87;;
65461;SDS011;53236;43.666;18.444;2024-02-15T12:47:18;8.03;;;4.83;;
65461;SDS011;53236;43.666;18.444;2024-02-15T12:49:45;7.57;;;3.00;;
65461;SDS011;53236;43.666;18.444;2024-02-15T12:55:17;7.23;;;4.23;;
65461;SDS011;53236;43.666;18.444;2024-02-15T12:57:49;7.23;;;3.67;;
65461;SDS011;53236;43.666;18.444;2024-02-15T13:00:23;7.57;;;3.40;;
65461;SDS011;53236;43.666;18.444;2024-02-15T13:02:53;5.97;;;3.00;;
65461;SDS011;53236;43.666;18.444;2024-02-15T13:05:21;8.10;;;4.43;;
65461;SDS011;53236;43.666;18.444;2024-02-15T13:07:51;7.87;;;4.20;;
65461;SDS011;53236;43.666;18.444;2024-02-15T13:10:20;7.33;;;4.10;;
65461;SDS011;53236;43.666;18.444;2024-02-15T13:12:47;6.90;;;3.60;;
65461;SDS011;53236;43.666;18.444;2024-02-15T13:15:14;6.57;;;4.00;;
65461;SDS011;53236;43.666;18.444;2024-02-15T13:17:45;10.60;;;4.23;;
65461;SDS011;53236;43.666;18.444;2024-02-15T13:20:16;6.90;;;3.63;;
65461;SDS011;53236;43.666;18.444;2024-02-15T13:22:45;15.60;;;7.53;;
65461;SDS011;53236;43.666;18.444;2024-02-15T13:25:15;8.43;;;4.20;;
65461;SDS011;53236;43.666;18.444;2024-02-15T13:27:46;13.90;;;7.67;;
65461;SDS011;53236;43.666;18.444;2024-02-15T13:30:12;10.40;;;5.17;;
65461;SDS011;53236;43.666;18.444;2024-02-15T13:32:38;11.77;;;7.17;;
65461;SDS011;53236;43.666;18.444;2024-02-15T13:35:06;11.17;;;7.07;;
65461;SDS011;53236;43.666;18.444;2024-02-15T13:40:11;7.30;;;4.33;;
65461;SDS011;53236;43.666;18.444;2024-02-15T13:42:41;7.33;;;4.20;;
65461;SDS011;53236;43.666;18.444;2024-02-15T13:45:22;6.93;;;4.23;;
65461;SDS011;53236;43.666;18.444;2024-02-15T13:47:56;9.27;;;4.05;;
65461;SDS011;53236;43.666;18.444;2024-02-15T13:50:22;11.43;;;4.50;;
65461;SDS011;53236;43.666;18.444;2024-02-15T13:52:48;11.53;;;4.57;;
65461;SDS011;53236;43.666;18.444;2024-02-15T13:55:15;13.20;;;4.90;;
65461;SDS011;53236;43.666;18.444;2024-02-15T13:57:46;11.97;;;6.60;;
65461;SDS011;53236;43.666;18.444;2024-02-15T14:00:13;30.17;;;19.00;;
65461;SDS011;53236;43.666;18.444;2024-02-15T14:02:49;16.53;;;8.53;;
65461;SDS011;53236;43.666;18.444;2024-02-15T14:05:20;22.63;;;14.03;;
65461;SDS011;53236;43.666;18.444;2024-02-15T14:07:54;34.43;;;24.77;;
65461;SDS011;53236;43.666;18.444;2024-02-15T14:10:24;35.73;;;26.37;;
65461;SDS011;53236;43.666;18.444;2024-02-15T14:12:52;14.90;;;10.63;;
65461;SDS011;53236;43.666;18.444;2024-02-15T14:15:20;10.73;;;7.17;;
65461;SDS011;53236;43.666;18.444;2024-02-15T14:17:47;11.10;;;6.93;;
65461;SDS011;53236;43.666;18.444;2024-02-15T14:20:13;12.47;;;5.63;;
65461;SDS011;53236;43.666;18.444;2024-02-15T14:22:39;13.73;;;7.40;;
65461;SDS011;53236;43.666;18.444;2024-02-15T14:25:06;14.63;;;8.43;;
65461;SDS011;53236;43.666;18.444;2024-02-15T14:27:32;14.57;;;8.23;;
65461;SDS011;53236;43.666;18.444;2024-02-15T14:29:58;9.60;;;6.70;;
65461;SDS011;53236;43.666;18.444;2024-02-15T14:32:42;8.77;;;4.87;;
65461;SDS011;53236;43.666;18.444;2024-02-15T14:35:32;17.70;;;7.40;;
65461;SDS011;53236;43.666;18.444;2024-02-15T14:38:10;8.60;;;5.53;;
65461;SDS011;53236;43.666;18.444;2024-02-15T14:40:41;11.67;;;6.93;;
65461;SDS011;53236;43.666;18.444;2024-02-15T14:43:25;13.57;;;8.20;;